sensor_id;sensor_type;location;lat;lon;timestamp;P1;durP1;ratioP1;P2;durP2;ratioP2
19260;SDS011;75986;48.588;9.216;2024-01-30T00:01:05;9.95;;;4.10;;
19260;SDS011;75986;48.588;9.216;2024-01-30T00:03:36;14.93;;;4.90;;
19260;SDS011;75986;48.588;9.216;2024-01-30T00:06:07;7.20;;;4.55;;
19260;SDS011;75986;48.588;9.216;2024-01-30T00:08:41;8.23;;;4.28;;
19260;SDS011;75986;48.588;9.216;2024-01-30T00:11:13;9.18;;;4.20;;
19260;SDS011;75986;48.588;9.216;2024-01-30T00:13:43;10.05;;;4.47;;
19260;SDS011;75986;48.588;9.216;2024-01-30T00:16:19;11.75;;;4.57;;
19260;SDS011;75986;48.588;9.216;2024-01-30T00:18:51;9.40;;;4.00;;
19260;SDS011;75986;48.588;9.216;2024-01-30T00:21:21;8.13;;;4.15;;
19260;SDS011;75986;48.588;9.216;2024-01-30T00:23:55;7.60;;;3.88;;
19260;SDS011;75986;48.588;9.216;2024-01-30T00:26:25;7.25;;;3.72;;
19260;SDS011;75986;48.588;9.216;2024-01-30T00:28:56;7.82;;;4.45;;
19260;SDS011;75986;48.588;9.216;2024-01-30T00:31:27;6.78;;;4.25;;
19260;SDS011;75986;48.588;9.216;2024-01-30T00:33:57;6.68;;;3.90;;
19260;SDS011;75986;48.588;9.216;2024-01-30T00:36:28;7.63;;;3.40;;
19260;SDS011;75986;48.588;9.216;2024-01-30T00:39:03;8.77;;;4.00;;
19260;SDS011;75986;48.588;9.216;2024-01-30T00:41:35;6.50;;;4.10;;
19260;SDS011;75986;48.588;9.216;2024-01-30T00:44:06;9.57;;;4.38;;
19260;SDS011;75986;48.588;9.216;2024-01-30T00:46:37;8.13;;;4.30;;
19260;SDS011;75986;48.588;9.216;2024-01-30T00:49:07;9.15;;;4.38;;
19260;SDS011;75986;48.588;9.216;2024-01-30T00:51:38;9.48;;;3.92;;
19260;SDS011;75986;48.588;9.216;2024-01-30T00:54:11;6.20;;;4.10;;
19260;SDS011;75986;48.588;9.216;2024-01-30T00:56:42;8.70;;;4.18;;
19260;SDS011;75986;48.588;9.216;2024-01-30T00:59:12;9.50;;;4.38;;
19260;SDS011;75986;48.588;9.216;2024-01-30T01:01:43;15.95;;;3.95;;
19260;SDS011;75986;48.588;9.216;2024-01-30T01:04:14;7.05;;;3.95;;
19260;SDS011;75986;48.588;9.216;2024-01-30T01:06:45;8.70;;;4.43;;
19260;SDS011;75986;48.588;9.216;2024-01-30T01:09:18;8.95;;;4.38;;
19260;SDS011;75986;48.588;9.216;2024-01-30T01:11:49;8.15;;;4.15;;
19260;SDS011;75986;48.588;9.216;2024-01-30T01:14:19;9.88;;;4.30;;
19260;SDS011;75986;48.588;9.216;2024-01-30T01:16:50;7.32;;;3.90;;
19260;SDS011;75986;48.588;9.216;2024-01-30T01:19:21;7.95;;;4.15;;
19260;SDS011;75986;48.588;9.216;2024-01-30T01:21:51;7.57;;;4.15;;
19260;SDS011;75986;48.588;9.216;2024-01-30T01:24:26;7.88;;;4.05;;
19260;SDS011;75986;48.588;9.216;2024-01-30T01:26:57;6.13;;;3.78;;
19260;SDS011;75986;48.588;9.216;2024-01-30T01:29:28;7.65;;;4.15;;
19260;SDS011;75986;48.588;9.216;2024-01-30T01:31:59;6.90;;;4.00;;
19260;SDS011;75986;48.588;9.216;2024-01-30T01:34:29;5.93;;;3.33;;
19260;SDS011;75986;48.588;9.216;2024-01-30T01:37:00;6.80;;;3.53;;
19260;SDS011;75986;48.588;9.216;2024-01-30T01:39:33;6.53;;;3.53;;
19260;SDS011;75986;48.588;9.216;2024-01-30T01:42:04;5.70;;;3.53;;
19260;SDS011;75986;48.588;9.216;2024-01-30T01:44:35;7.60;;;3.80;;
19260;SDS011;75986;48.588;9.216;2024-01-30T01:47:05;6.07;;;3.33;;
19260;SDS011;75986;48.588;9.216;2024-01-30T01:49:36;6.78;;;3.65;;
19260;SDS011;75986;48.588;9.216;2024-01-30T01:52:07;6.53;;;3.83;;
19260;SDS011;75986;48.588;9.216;2024-01-30T01:54:41;7.22;;;3.88;;
19260;SDS011;75986;48.588;9.216;2024-01-30T01:57:12;5.72;;;3.40;;
19260;SDS011;75986;48.588;9.216;2024-01-30T01:59:42;6.57;;;3.60;;
19260;SDS011;75986;48.588;9.216;2024-01-30T02:02:13;7.63;;;3.72;;
19260;SDS011;75986;48.588;9.216;2024-01-30T02:07:57;7.53;;;4.05;;
19260;SDS011;75986;48.588;9.216;2024-01-30T02:10:31;5.72;;;3.28;;
19260;SDS011;75986;48.588;9.216;2024-01-30T02:13:01;6.05;;;3.38;;
19260;SDS011;75986;48.588;9.216;2024-01-30T02:15:32;5.28;;;3.65;;
19260;SDS011;75986;48.588;9.216;2024-01-30T02:18:03;9.63;;;3.80;;
19260;SDS011;75986;48.588;9.216;2024-01-30T02:20:35;5.32;;;3.00;;
19260;SDS011;75986;48.588;9.216;2024-01-30T02:23:10;6.95;;;4.10;;
19260;SDS011;75986;48.588;9.216;2024-01-30T02:25:43;5.88;;;3.55;;
19260;SDS011;75986;48.588;9.216;2024-01-30T02:28:14;6.00;;;3.42;;
19260;SDS011;75986;48.588;9.216;2024-01-30T02:30:45;7.78;;;4.30;;
19260;SDS011;75986;48.588;9.216;2024-01-30T02:33:17;6.82;;;3.53;;
19260;SDS011;75986;48.588;9.216;2024-01-30T02:35:48;5.53;;;3.45;;
19260;SDS011;75986;48.588;9.216;2024-01-30T02:38:22;5.40;;;3.13;;
19260;SDS011;75986;48.588;9.216;2024-01-30T02:40:53;5.13;;;3.47;;
19260;SDS011;75986;48.588;9.216;2024-01-30T02:43:25;5.80;;;3.22;;
19260;SDS011;75986;48.588;9.216;2024-01-30T02:45:55;4.45;;;3.20;;
19260;SDS011;75986;48.588;9.216;2024-01-30T02:48:27;6.57;;;3.95;;
19260;SDS011;75986;48.588;9.216;2024-01-30T02:50:58;6.53;;;3.85;;
19260;SDS011;75986;48.588;9.216;2024-01-30T02:53:31;7.40;;;4.10;;
19260;SDS011;75986;48.588;9.216;2024-01-30T02:56:02;5.00;;;2.95;;
19260;SDS011;75986;48.588;9.216;2024-01-30T02:58:36;5.20;;;3.40;;
19260;SDS011;75986;48.588;9.216;2024-01-30T03:01:07;5.78;;;3.45;;
19260;SDS011;75986;48.588;9.216;2024-01-30T03:03:41;5.07;;;3.33;;
19260;SDS011;75986;48.588;9.216;2024-01-30T03:06:11;6.30;;;3.92;;
19260;SDS011;75986;48.588;9.216;2024-01-30T03:08:46;5.93;;;3.42;;
19260;SDS011;75986;48.588;9.216;2024-01-30T03:11:17;7.05;;;3.75;;
19260;SDS011;75986;48.588;9.216;2024-01-30T03:13:48;6.07;;;2.97;;
19260;SDS011;75986;48.588;9.216;2024-01-30T03:16:18;7.30;;;3.85;;
19260;SDS011;75986;48.588;9.216;2024-01-30T03:18:50;6.93;;;3.35;;
19260;SDS011;75986;48.588;9.216;2024-01-30T03:21:20;5.07;;;3.10;;
19260;SDS011;75986;48.588;9.216;2024-01-30T03:23:55;5.75;;;3.30;;
19260;SDS011;75986;48.588;9.216;2024-01-30T03:26:26;5.70;;;3.25;;
19260;SDS011;75986;48.588;9.216;2024-01-30T03:28:56;6.97;;;3.55;;
19260;SDS011;75986;48.588;9.216;2024-01-30T03:31:29;5.65;;;3.20;;
19260;SDS011;75986;48.588;9.216;2024-01-30T03:34:00;5.18;;;3.35;;
19260;SDS011;75986;48.588;9.216;2024-01-30T03:36:31;5.95;;;3.53;;
19260;SDS011;75986;48.588;9.216;2024-01-30T03:39:05;5.45;;;3.47;;
19260;SDS011;75986;48.588;9.216;2024-01-30T03:41:35;4.38;;;2.92;;
19260;SDS011;75986;48.588;9.216;2024-01-30T03:44:06;6.53;;;3.40;;
19260;SDS011;75986;48.588;9.216;2024-01-30T03:46:36;4.78;;;2.88;;
19260;SDS011;75986;48.588;9.216;2024-01-30T03:49:07;6.25;;;3.15;;
19260;SDS011;75986;48.588;9.216;2024-01-30T03:51:38;5.88;;;3.72;;
19260;SDS011;75986;48.588;9.216;2024-01-30T03:54:11;3.42;;;2.92;;
19260;SDS011;75986;48.588;9.216;2024-01-30T03:56:42;4.90;;;2.80;;
19260;SDS011;75986;48.588;9.216;2024-01-30T03:59:12;6.28;;;3.28;;
19260;SDS011;75986;48.588;9.216;2024-01-30T04:01:46;7.22;;;2.92;;
19260;SDS011;75986;48.588;9.216;2024-01-30T04:04:17;7.53;;;3.22;;
19260;SDS011;75986;48.588;9.216;2024-01-30T04:06:47;5.03;;;3.00;;
19260;SDS011;75986;48.588;9.216;2024-01-30T04:09:21;5.75;;;3.17;;
19260;SDS011;75986;48.588;9.216;2024-01-30T04:11:53;3.53;;;2.85;;
19260;SDS011;75986;48.588;9.216;2024-01-30T04:14:21;5.13;;;3.38;;
19260;SDS011;75986;48.588;9.216;2024-01-30T04:16:51;6.45;;;3.50;;
19260;SDS011;75986;48.588;9.216;2024-01-30T04:19:22;5.05;;;3.13;;
19260;SDS011;75986;48.588;9.216;2024-01-30T04:21:53;4.45;;;3.03;;
19260;SDS011;75986;48.588;9.216;2024-01-30T04:24:27;3.50;;;2.80;;
19260;SDS011;75986;48.588;9.216;2024-01-30T04:26:58;4.75;;;3.13;;
19260;SDS011;75986;48.588;9.216;2024-01-30T04:29:29;5.28;;;3.17;;
19260;SDS011;75986;48.588;9.216;2024-01-30T04:32:00;5.38;;;3.13;;
19260;SDS011;75986;48.588;9.216;2024-01-30T04:34:31;4.18;;;2.70;;
19260;SDS011;75986;48.588;9.216;2024-01-30T04:37:01;6.03;;;3.05;;
19260;SDS011;75986;48.588;9.216;2024-01-30T04:39:35;4.70;;;3.28;;
19260;SDS011;75986;48.588;9.216;2024-01-30T04:42:06;5.70;;;3.40;;
19260;SDS011;75986;48.588;9.216;2024-01-30T04:44:37;6.82;;;3.78;;
19260;SDS011;75986;48.588;9.216;2024-01-30T04:47:07;5.22;;;2.83;;
19260;SDS011;75986;48.588;9.216;2024-01-30T04:49:39;5.78;;;3.25;;
19260;SDS011;75986;48.588;9.216;2024-01-30T04:52:10;5.03;;;3.22;;
19260;SDS011;75986;48.588;9.216;2024-01-30T04:54:43;4.03;;;2.67;;
19260;SDS011;75986;48.588;9.216;2024-01-30T04:57:13;3.75;;;2.70;;
19260;SDS011;75986;48.588;9.216;2024-01-30T04:59:44;5.07;;;2.95;;
19260;SDS011;75986;48.588;9.216;2024-01-30T05:02:15;4.72;;;2.78;;
19260;SDS011;75986;48.588;9.216;2024-01-30T05:04:46;4.25;;;2.88;;
19260;SDS011;75986;48.588;9.216;2024-01-30T05:07:16;3.80;;;2.55;;
19260;SDS011;75986;48.588;9.216;2024-01-30T05:09:49;4.78;;;2.85;;
19260;SDS011;75986;48.588;9.216;2024-01-30T05:12:25;4.38;;;2.72;;
19260;SDS011;75986;48.588;9.216;2024-01-30T05:14:56;4.55;;;3.10;;
19260;SDS011;75986;48.588;9.216;2024-01-30T05:17:26;5.22;;;3.30;;
19260;SDS011;75986;48.588;9.216;2024-01-30T05:19:57;4.32;;;2.55;;
19260;SDS011;75986;48.588;9.216;2024-01-30T05:22:28;4.72;;;3.10;;
19260;SDS011;75986;48.588;9.216;2024-01-30T05:25:01;3.97;;;3.03;;
19260;SDS011;75986;48.588;9.216;2024-01-30T05:27:31;3.92;;;2.80;;
19260;SDS011;75986;48.588;9.216;2024-01-30T05:30:02;4.63;;;2.85;;
19260;SDS011;75986;48.588;9.216;2024-01-30T05:32:33;5.88;;;2.80;;
19260;SDS011;75986;48.588;9.216;2024-01-30T05:35:04;5.82;;;3.13;;
19260;SDS011;75986;48.588;9.216;2024-01-30T05:37:34;5.68;;;2.80;;
19260;SDS011;75986;48.588;9.216;2024-01-30T05:40:09;6.30;;;3.17;;
19260;SDS011;75986;48.588;9.216;2024-01-30T05:42:40;5.70;;;2.83;;
19260;SDS011;75986;48.588;9.216;2024-01-30T05:45:10;5.25;;;2.95;;
19260;SDS011;75986;48.588;9.216;2024-01-30T05:47:41;4.65;;;2.80;;
19260;SDS011;75986;48.588;9.216;2024-01-30T05:50:12;5.70;;;3.15;;
19260;SDS011;75986;48.588;9.216;2024-01-30T05:52:42;5.63;;;2.78;;
19260;SDS011;75986;48.588;9.216;2024-01-30T05:55:16;5.93;;;3.08;;
19260;SDS011;75986;48.588;9.216;2024-01-30T05:57:46;3.67;;;2.55;;
19260;SDS011;75986;48.588;9.216;2024-01-30T06:00:18;8.68;;;2.97;;
19260;SDS011;75986;48.588;9.216;2024-01-30T06:02:48;6.05;;;3.17;;
19260;SDS011;75986;48.588;9.216;2024-01-30T06:05:19;4.55;;;3.00;;
19260;SDS011;75986;48.588;9.216;2024-01-30T06:07:50;6.25;;;3.08;;
19260;SDS011;75986;48.588;9.216;2024-01-30T06:10:24;4.93;;;3.00;;
19260;SDS011;75986;48.588;9.216;2024-01-30T06:12:55;4.32;;;2.50;;
19260;SDS011;75986;48.588;9.216;2024-01-30T06:15:25;8.52;;;3.30;;
19260;SDS011;75986;48.588;9.216;2024-01-30T06:17:56;6.13;;;3.20;;
19260;SDS011;75986;48.588;9.216;2024-01-30T06:20:27;11.02;;;2.92;;
19260;SDS011;75986;48.588;9.216;2024-01-30T06:22:58;8.10;;;2.90;;
19260;SDS011;75986;48.588;9.216;2024-01-30T06:25:31;11.40;;;3.28;;
19260;SDS011;75986;48.588;9.216;2024-01-30T06:28:05;7.43;;;3.35;;
19260;SDS011;75986;48.588;9.216;2024-01-30T06:30:35;11.25;;;3.72;;
19260;SDS011;75986;48.588;9.216;2024-01-30T06:33:06;10.90;;;3.90;;
19260;SDS011;75986;48.588;9.216;2024-01-30T06:35:37;8.68;;;3.55;;
19260;SDS011;75986;48.588;9.216;2024-01-30T06:38:10;10.48;;;3.60;;
19260;SDS011;75986;48.588;9.216;2024-01-30T06:40:45;12.27;;;3.80;;
19260;SDS011;75986;48.588;9.216;2024-01-30T06:43:16;10.10;;;4.00;;
19260;SDS011;75986;48.588;9.216;2024-01-30T06:45:46;9.27;;;3.60;;
19260;SDS011;75986;48.588;9.216;2024-01-30T06:48:18;15.48;;;3.58;;
19260;SDS011;75986;48.588;9.216;2024-01-30T06:50:49;11.07;;;3.72;;
19260;SDS011;75986;48.588;9.216;2024-01-30T06:53:20;9.63;;;3.72;;
19260;SDS011;75986;48.588;9.216;2024-01-30T06:55:54;10.15;;;3.60;;
19260;SDS011;75986;48.588;9.216;2024-01-30T06:58:24;13.63;;;3.70;;
19260;SDS011;75986;48.588;9.216;2024-01-30T07:00:55;6.30;;;3.75;;
19260;SDS011;75986;48.588;9.216;2024-01-30T07:03:26;6.32;;;3.30;;
19260;SDS011;75986;48.588;9.216;2024-01-30T07:05:57;13.38;;;4.00;;
19260;SDS011;75986;48.588;9.216;2024-01-30T07:08:27;9.73;;;3.40;;
19260;SDS011;75986;48.588;9.216;2024-01-30T07:11:01;13.23;;;5.25;;
19260;SDS011;75986;48.588;9.216;2024-01-30T07:13:31;8.90;;;4.60;;
19260;SDS011;75986;48.588;9.216;2024-01-30T07:16:02;8.23;;;4.85;;
19260;SDS011;75986;48.588;9.216;2024-01-30T07:18:33;7.15;;;5.70;;
19260;SDS011;75986;48.588;9.216;2024-01-30T07:21:04;6.75;;;5.25;;
19260;SDS011;75986;48.588;9.216;2024-01-30T07:23:35;7.53;;;5.18;;
19260;SDS011;75986;48.588;9.216;2024-01-30T07:26:08;6.15;;;4.97;;
19260;SDS011;75986;48.588;9.216;2024-01-30T07:28:39;5.57;;;4.90;;
19260;SDS011;75986;48.588;9.216;2024-01-30T07:31:10;7.25;;;4.82;;
19260;SDS011;75986;48.588;9.216;2024-01-30T07:33:41;9.05;;;5.05;;
19260;SDS011;75986;48.588;9.216;2024-01-30T07:36:12;6.88;;;5.20;;
19260;SDS011;75986;48.588;9.216;2024-01-30T07:38:43;11.02;;;6.15;;
19260;SDS011;75986;48.588;9.216;2024-01-30T07:41:16;15.45;;;6.57;;
19260;SDS011;75986;48.588;9.216;2024-01-30T07:43:47;21.30;;;8.00;;
19260;SDS011;75986;48.588;9.216;2024-01-30T07:46:19;19.42;;;8.32;;
19260;SDS011;75986;48.588;9.216;2024-01-30T07:48:49;21.75;;;8.43;;
19260;SDS011;75986;48.588;9.216;2024-01-30T07:51:21;23.95;;;8.80;;
19260;SDS011;75986;48.588;9.216;2024-01-30T07:53:51;20.33;;;7.95;;
19260;SDS011;75986;48.588;9.216;2024-01-30T07:56:24;19.00;;;8.57;;
19260;SDS011;75986;48.588;9.216;2024-01-30T07:58:55;21.15;;;8.50;;
19260;SDS011;75986;48.588;9.216;2024-01-30T08:01:25;18.85;;;7.90;;
19260;SDS011;75986;48.588;9.216;2024-01-30T08:03:56;20.85;;;8.15;;
19260;SDS011;75986;48.588;9.216;2024-01-30T08:06:27;25.50;;;8.70;;
19260;SDS011;75986;48.588;9.216;2024-01-30T08:08:57;26.02;;;8.52;;
19260;SDS011;75986;48.588;9.216;2024-01-30T08:11:31;23.10;;;8.25;;
19260;SDS011;75986;48.588;9.216;2024-01-30T08:14:01;21.90;;;8.88;;
19260;SDS011;75986;48.588;9.216;2024-01-30T08:16:32;21.90;;;8.48;;
19260;SDS011;75986;48.588;9.216;2024-01-30T08:19:03;24.50;;;7.90;;
19260;SDS011;75986;48.588;9.216;2024-01-30T08:21:34;20.60;;;8.52;;
19260;SDS011;75986;48.588;9.216;2024-01-30T08:24:06;19.13;;;7.25;;
19260;SDS011;75986;48.588;9.216;2024-01-30T08:26:39;23.42;;;8.27;;
19260;SDS011;75986;48.588;9.216;2024-01-30T08:29:10;23.60;;;8.02;;
19260;SDS011;75986;48.588;9.216;2024-01-30T08:31:41;18.25;;;8.13;;
19260;SDS011;75986;48.588;9.216;2024-01-30T08:34:13;20.63;;;7.85;;
19260;SDS011;75986;48.588;9.216;2024-01-30T08:36:44;22.25;;;8.75;;
19260;SDS011;75986;48.588;9.216;2024-01-30T08:39:14;23.92;;;8.77;;
19260;SDS011;75986;48.588;9.216;2024-01-30T08:41:48;20.80;;;8.65;;
19260;SDS011;75986;48.588;9.216;2024-01-30T08:44:18;18.17;;;8.30;;
19260;SDS011;75986;48.588;9.216;2024-01-30T08:46:49;24.75;;;8.38;;
19260;SDS011;75986;48.588;9.216;2024-01-30T08:49:22;21.20;;;8.10;;
19260;SDS011;75986;48.588;9.216;2024-01-30T08:51:53;27.48;;;9.32;;
19260;SDS011;75986;48.588;9.216;2024-01-30T08:54:24;20.67;;;7.90;;
19260;SDS011;75986;48.588;9.216;2024-01-30T08:56:57;21.38;;;8.48;;
19260;SDS011;75986;48.588;9.216;2024-01-30T08:59:28;20.25;;;8.15;;
19260;SDS011;75986;48.588;9.216;2024-01-30T09:02:00;23.15;;;8.27;;
19260;SDS011;75986;48.588;9.216;2024-01-30T09:04:38;24.20;;;8.30;;
19260;SDS011;75986;48.588;9.216;2024-01-30T09:07:09;24.20;;;7.78;;
19260;SDS011;75986;48.588;9.216;2024-01-30T09:09:40;16.80;;;8.52;;
19260;SDS011;75986;48.588;9.216;2024-01-30T09:12:14;22.25;;;8.75;;
19260;SDS011;75986;48.588;9.216;2024-01-30T09:14:45;21.25;;;8.65;;
19260;SDS011;75986;48.588;9.216;2024-01-30T09:17:15;21.42;;;8.38;;
19260;SDS011;75986;48.588;9.216;2024-01-30T09:19:46;22.73;;;9.07;;
19260;SDS011;75986;48.588;9.216;2024-01-30T09:22:17;18.00;;;7.88;;
19260;SDS011;75986;48.588;9.216;2024-01-30T09:24:47;23.48;;;8.48;;
19260;SDS011;75986;48.588;9.216;2024-01-30T09:27:21;23.23;;;8.70;;
19260;SDS011;75986;48.588;9.216;2024-01-30T09:29:51;22.70;;;8.63;;
19260;SDS011;75986;48.588;9.216;2024-01-30T09:32:22;24.38;;;8.75;;
19260;SDS011;75986;48.588;9.216;2024-01-30T09:34:53;21.90;;;8.25;;
19260;SDS011;75986;48.588;9.216;2024-01-30T09:37:24;19.80;;;8.23;;
19260;SDS011;75986;48.588;9.216;2024-01-30T09:39:55;22.42;;;8.35;;
19260;SDS011;75986;48.588;9.216;2024-01-30T09:42:31;21.35;;;8.35;;
19260;SDS011;75986;48.588;9.216;2024-01-30T09:45:04;21.48;;;8.40;;
19260;SDS011;75986;48.588;9.216;2024-01-30T09:47:39;23.30;;;9.35;;
19260;SDS011;75986;48.588;9.216;2024-01-30T09:50:12;22.00;;;8.13;;
19260;SDS011;75986;48.588;9.216;2024-01-30T09:52:43;23.15;;;8.60;;
19260;SDS011;75986;48.588;9.216;2024-01-30T09:55:14;20.02;;;8.00;;
19260;SDS011;75986;48.588;9.216;2024-01-30T09:57:47;19.02;;;8.02;;
19260;SDS011;75986;48.588;9.216;2024-01-30T10:00:18;18.15;;;8.57;;
19260;SDS011;75986;48.588;9.216;2024-01-30T10:02:54;24.95;;;8.85;;
19260;SDS011;75986;48.588;9.216;2024-01-30T10:05:26;28.77;;;9.13;;
19260;SDS011;75986;48.588;9.216;2024-01-30T10:07:57;21.00;;;8.55;;
19260;SDS011;75986;48.588;9.216;2024-01-30T10:10:27;19.52;;;8.43;;
19260;SDS011;75986;48.588;9.216;2024-01-30T10:13:01;20.17;;;7.43;;
19260;SDS011;75986;48.588;9.216;2024-01-30T10:15:32;26.20;;;8.48;;
19260;SDS011;75986;48.588;9.216;2024-01-30T10:18:02;23.85;;;9.35;;
19260;SDS011;75986;48.588;9.216;2024-01-30T10:20:33;24.08;;;9.48;;
19260;SDS011;75986;48.588;9.216;2024-01-30T10:23:04;23.75;;;9.25;;
19260;SDS011;75986;48.588;9.216;2024-01-30T10:25:35;22.35;;;9.10;;
19260;SDS011;75986;48.588;9.216;2024-01-30T10:28:08;19.90;;;8.48;;
19260;SDS011;75986;48.588;9.216;2024-01-30T10:30:39;18.52;;;8.10;;
19260;SDS011;75986;48.588;9.216;2024-01-30T10:33:10;21.23;;;8.57;;
19260;SDS011;75986;48.588;9.216;2024-01-30T10:35:41;23.50;;;9.07;;
19260;SDS011;75986;48.588;9.216;2024-01-30T10:38:12;23.52;;;9.45;;
19260;SDS011;75986;48.588;9.216;2024-01-30T10:40:44;21.95;;;10.27;;
19260;SDS011;75986;48.588;9.216;2024-01-30T10:43:18;25.42;;;9.25;;
19260;SDS011;75986;48.588;9.216;2024-01-30T10:45:50;23.75;;;9.88;;
19260;SDS011;75986;48.588;9.216;2024-01-30T10:48:25;25.10;;;10.15;;
19260;SDS011;75986;48.588;9.216;2024-01-30T10:50:59;23.63;;;10.10;;
19260;SDS011;75986;48.588;9.216;2024-01-30T10:53:30;26.63;;;10.68;;
19260;SDS011;75986;48.588;9.216;2024-01-30T10:56:01;24.63;;;10.15;;
19260;SDS011;75986;48.588;9.216;2024-01-30T10:58:35;27.75;;;10.95;;
19260;SDS011;75986;48.588;9.216;2024-01-30T11:01:06;27.27;;;10.73;;
19260;SDS011;75986;48.588;9.216;2024-01-30T11:03:37;28.95;;;10.38;;
19260;SDS011;75986;48.588;9.216;2024-01-30T11:06:10;28.58;;;10.20;;
19260;SDS011;75986;48.588;9.216;2024-01-30T11:08:45;26.35;;;10.27;;
19260;SDS011;75986;48.588;9.216;2024-01-30T11:11:16;22.95;;;10.02;;
19260;SDS011;75986;48.588;9.216;2024-01-30T11:13:49;23.63;;;10.35;;
19260;SDS011;75986;48.588;9.216;2024-01-30T11:16:20;26.98;;;10.85;;
19260;SDS011;75986;48.588;9.216;2024-01-30T11:18:51;22.85;;;11.23;;
19260;SDS011;75986;48.588;9.216;2024-01-30T11:21:21;31.23;;;10.77;;
19260;SDS011;75986;48.588;9.216;2024-01-30T11:23:55;29.17;;;10.80;;
19260;SDS011;75986;48.588;9.216;2024-01-30T11:26:27;23.73;;;10.63;;
19260;SDS011;75986;48.588;9.216;2024-01-30T11:29:02;26.60;;;10.25;;
19260;SDS011;75986;48.588;9.216;2024-01-30T11:31:34;25.70;;;10.70;;
19260;SDS011;75986;48.588;9.216;2024-01-30T11:34:05;25.80;;;10.45;;
19260;SDS011;75986;48.588;9.216;2024-01-30T11:36:36;24.92;;;11.05;;
19260;SDS011;75986;48.588;9.216;2024-01-30T11:39:10;22.70;;;10.85;;
19260;SDS011;75986;48.588;9.216;2024-01-30T11:41:41;27.45;;;10.40;;
19260;SDS011;75986;48.588;9.216;2024-01-30T11:44:15;22.92;;;10.20;;
19260;SDS011;75986;48.588;9.216;2024-01-30T11:46:47;21.98;;;9.82;;
19260;SDS011;75986;48.588;9.216;2024-01-30T11:49:18;27.88;;;11.07;;
19260;SDS011;75986;48.588;9.216;2024-01-30T11:51:49;22.23;;;10.18;;
19260;SDS011;75986;48.588;9.216;2024-01-30T11:54:20;22.58;;;9.80;;
19260;SDS011;75986;48.588;9.216;2024-01-30T11:56:51;22.23;;;9.30;;
19260;SDS011;75986;48.588;9.216;2024-01-30T11:59:24;24.38;;;10.80;;
19260;SDS011;75986;48.588;9.216;2024-01-30T12:01:54;24.15;;;9.88;;
19260;SDS011;75986;48.588;9.216;2024-01-30T12:04:27;24.20;;;10.32;;
19260;SDS011;75986;48.588;9.216;2024-01-30T12:06:58;23.85;;;10.63;;
19260;SDS011;75986;48.588;9.216;2024-01-30T12:09:30;27.77;;;10.38;;
19260;SDS011;75986;48.588;9.216;2024-01-30T12:12:00;19.58;;;9.90;;
19260;SDS011;75986;48.588;9.216;2024-01-30T12:14:34;25.45;;;9.60;;
19260;SDS011;75986;48.588;9.216;2024-01-30T12:17:05;21.67;;;9.82;;
19260;SDS011;75986;48.588;9.216;2024-01-30T12:19:37;22.88;;;10.23;;
19260;SDS011;75986;48.588;9.216;2024-01-30T12:22:08;22.17;;;10.18;;
19260;SDS011;75986;48.588;9.216;2024-01-30T12:24:41;24.40;;;10.15;;
19260;SDS011;75986;48.588;9.216;2024-01-30T12:27:14;28.02;;;10.45;;
19260;SDS011;75986;48.588;9.216;2024-01-30T12:29:47;19.75;;;9.88;;
19260;SDS011;75986;48.588;9.216;2024-01-30T12:32:18;24.60;;;10.85;;
19260;SDS011;75986;48.588;9.216;2024-01-30T12:34:49;22.38;;;9.57;;
19260;SDS011;75986;48.588;9.216;2024-01-30T12:37:27;20.23;;;9.07;;
19260;SDS011;75986;48.588;9.216;2024-01-30T12:39:58;20.13;;;9.23;;
19260;SDS011;75986;48.588;9.216;2024-01-30T12:42:28;20.65;;;9.68;;
19260;SDS011;75986;48.588;9.216;2024-01-30T12:45:02;20.05;;;9.48;;
19260;SDS011;75986;48.588;9.216;2024-01-30T12:47:32;27.17;;;10.32;;
19260;SDS011;75986;48.588;9.216;2024-01-30T12:50:03;18.85;;;8.82;;
19260;SDS011;75986;48.588;9.216;2024-01-30T12:52:34;23.15;;;8.88;;
19260;SDS011;75986;48.588;9.216;2024-01-30T12:55:05;20.50;;;9.43;;
19260;SDS011;75986;48.588;9.216;2024-01-30T12:57:36;21.90;;;8.63;;
19260;SDS011;75986;48.588;9.216;2024-01-30T13:00:10;18.00;;;9.13;;
19260;SDS011;75986;48.588;9.216;2024-01-30T13:02:41;20.77;;;9.50;;
19260;SDS011;75986;48.588;9.216;2024-01-30T13:05:12;26.50;;;10.07;;
19260;SDS011;75986;48.588;9.216;2024-01-30T13:07:43;18.77;;;8.63;;
19260;SDS011;75986;48.588;9.216;2024-01-30T13:10:13;23.35;;;9.55;;
19260;SDS011;75986;48.588;9.216;2024-01-30T13:12:44;16.02;;;8.75;;
19260;SDS011;75986;48.588;9.216;2024-01-30T13:15:17;18.58;;;8.52;;
19260;SDS011;75986;48.588;9.216;2024-01-30T13:17:49;19.38;;;9.15;;
19260;SDS011;75986;48.588;9.216;2024-01-30T13:20:22;20.02;;;8.95;;
19260;SDS011;75986;48.588;9.216;2024-01-30T13:22:53;22.02;;;9.32;;
19260;SDS011;75986;48.588;9.216;2024-01-30T13:25:24;18.10;;;8.35;;
19260;SDS011;75986;48.588;9.216;2024-01-30T13:27:54;18.90;;;9.27;;
19260;SDS011;75986;48.588;9.216;2024-01-30T13:30:27;18.50;;;8.32;;
19260;SDS011;75986;48.588;9.216;2024-01-30T13:32:58;21.00;;;9.48;;
19260;SDS011;75986;48.588;9.216;2024-01-30T13:35:30;23.08;;;9.80;;
19260;SDS011;75986;48.588;9.216;2024-01-30T13:38:01;15.32;;;8.43;;
19260;SDS011;75986;48.588;9.216;2024-01-30T13:40:32;17.65;;;8.52;;
19260;SDS011;75986;48.588;9.216;2024-01-30T13:43:03;23.48;;;9.20;;
19260;SDS011;75986;48.588;9.216;2024-01-30T13:45:36;18.73;;;8.55;;
19260;SDS011;75986;48.588;9.216;2024-01-30T13:48:08;19.88;;;8.57;;
19260;SDS011;75986;48.588;9.216;2024-01-30T13:50:39;18.90;;;9.18;;
19260;SDS011;75986;48.588;9.216;2024-01-30T13:53:10;17.13;;;7.90;;
19260;SDS011;75986;48.588;9.216;2024-01-30T13:55:40;16.95;;;8.63;;
19260;SDS011;75986;48.588;9.216;2024-01-30T13:58:11;19.48;;;8.55;;
19260;SDS011;75986;48.588;9.216;2024-01-30T14:00:44;30.73;;;9.55;;
19260;SDS011;75986;48.588;9.216;2024-01-30T14:03:16;17.83;;;9.20;;
19260;SDS011;75986;48.588;9.216;2024-01-30T14:05:47;24.38;;;8.20;;
19260;SDS011;75986;48.588;9.216;2024-01-30T14:08:17;18.80;;;7.90;;
19260;SDS011;75986;48.588;9.216;2024-01-30T14:10:50;20.65;;;8.27;;
19260;SDS011;75986;48.588;9.216;2024-01-30T14:13:21;22.00;;;8.63;;
19260;SDS011;75986;48.588;9.216;2024-01-30T14:15:55;19.30;;;8.90;;
19260;SDS011;75986;48.588;9.216;2024-01-30T14:18:26;18.60;;;8.20;;
19260;SDS011;75986;48.588;9.216;2024-01-30T14:20:57;23.75;;;8.88;;
19260;SDS011;75986;48.588;9.216;2024-01-30T14:23:27;27.05;;;7.85;;
19260;SDS011;75986;48.588;9.216;2024-01-30T14:25:58;20.67;;;9.50;;
19260;SDS011;75986;48.588;9.216;2024-01-30T14:28:29;15.00;;;8.43;;
19260;SDS011;75986;48.588;9.216;2024-01-30T14:31:02;17.85;;;8.15;;
19260;SDS011;75986;48.588;9.216;2024-01-30T14:33:33;17.73;;;7.90;;
19260;SDS011;75986;48.588;9.216;2024-01-30T14:36:04;16.50;;;8.40;;
19260;SDS011;75986;48.588;9.216;2024-01-30T14:38:35;16.60;;;8.23;;
19260;SDS011;75986;48.588;9.216;2024-01-30T14:41:06;16.92;;;7.88;;
19260;SDS011;75986;48.588;9.216;2024-01-30T14:43:36;14.93;;;7.32;;
19260;SDS011;75986;48.588;9.216;2024-01-30T14:46:10;17.25;;;7.30;;
19260;SDS011;75986;48.588;9.216;2024-01-30T14:48:40;14.25;;;7.43;;
19260;SDS011;75986;48.588;9.216;2024-01-30T14:51:11;18.75;;;8.40;;
19260;SDS011;75986;48.588;9.216;2024-01-30T14:53:42;17.05;;;7.90;;
19260;SDS011;75986;48.588;9.216;2024-01-30T14:56:12;21.48;;;8.40;;
19260;SDS011;75986;48.588;9.216;2024-01-30T14:58:43;15.70;;;7.18;;
19260;SDS011;75986;48.588;9.216;2024-01-30T15:03:31;10.98;;;5.65;;
19260;SDS011;75986;48.588;9.216;2024-01-30T15:06:02;17.40;;;8.48;;
19260;SDS011;75986;48.588;9.216;2024-01-30T15:08:33;15.68;;;7.45;;